Time;durP1;ratioP1;P1;durP2;ratioP2;P2;SDS_P1;SDS_P2;PMS_P1;PMS_P2;Temp;Humidity;BMP_temperature;BMP_pressure;BME280_temperature;BME280_humidity;BME280_pressure;Samples;Min_cycle;Max_cycle;Signal;HPM_P1;HPM_P2
2022/05/24 00:00:28;;;;;;;16.02;11.23;;;14.60;99.90;;;;;;5119361;27;20071;-61
2022/05/24 00:02:54;;;;;;;12.90;9.77;;;14.50;99.90;;;;;;5116686;27;20062;-61
2022/05/24 00:05:22;;;;;;;13.63;9.75;;;14.50;99.90;;;;;;5124048;27;20043;-60
2022/05/24 00:07:48;;;;;;;12.90;9.57;;;14.50;99.90;;;;;;5120794;27;20020;-60
2022/05/24 00:10:18;;;;;;;15.00;9.75;;;14.50;99.90;;;;;;5120750;27;20416;-61
2022/05/24 00:12:43;;;;;;;13.50;9.23;;;14.40;99.90;;;;;;5120541;27;20066;-62
2022/05/24 00:15:29;;;;;;;12.68;8.70;;;14.40;99.90;;;;;;5126711;27;20116;-61
2022/05/24 00:18:01;;;;;;;9.68;7.85;;;14.40;99.90;;;;;;5144667;27;20035;-60
2022/05/24 00:20:31;;;;;;;11.85;8.20;;;14.30;99.90;;;;;;5144456;27;20055;-60
2022/05/24 00:22:58;;;;;;;13.50;8.30;;;14.20;99.90;;;;;;5139560;27;20046;-61
2022/05/24 00:25:25;;;;;;;11.05;7.38;;;14.30;99.90;;;;;;5124619;27;20046;-60
2022/05/24 00:27:50;;;;;;;10.00;7.55;;;14.30;99.90;;;;;;5137697;27;20039;-61
2022/05/24 00:30:18;;;;;;;11.07;8.15;;;14.30;99.90;;;;;;5143917;27;20544;-60
2022/05/24 00:32:44;;;;;;;12.23;8.07;;;14.30;99.90;;;;;;5141975;27;20035;-63
2022/05/24 00:35:10;;;;;;;9.13;7.45;;;14.30;99.90;;;;;;5143541;27;20096;-61
2022/05/24 00:37:40;;;;;;;13.48;8.25;;;14.30;99.90;;;;;;5141303;27;20526;-61
2022/05/24 00:40:10;;;;;;;12.50;7.88;;;14.20;99.90;;;;;;5140226;27;20158;-62
2022/05/24 00:42:38;;;;;;;12.77;8.13;;;14.20;99.90;;;;;;5140378;27;20040;-61
2022/05/24 00:45:07;;;;;;;10.35;8.02;;;14.20;99.90;;;;;;5140320;27;20054;-61
2022/05/24 00:47:40;;;;;;;10.70;8.45;;;14.20;99.90;;;;;;5135121;27;20427;-61
2022/05/24 00:50:13;;;;;;;11.05;8.40;;;14.10;99.90;;;;;;5146057;27;20039;-61
2022/05/24 00:52:53;;;;;;;11.63;7.85;;;14.10;99.90;;;;;;5142947;27;20106;-62
2022/05/24 00:55:22;;;;;;;12.20;8.80;;;14.10;99.90;;;;;;5138013;27;20034;-61
2022/05/24 00:58:07;;;;;;;12.98;9.00;;;14.00;99.90;;;;;;5142489;27;20061;-61
2022/05/24 01:00:33;;;;;;;10.98;8.52;;;14.00;99.90;;;;;;5122917;27;20351;-61
2022/05/24 01:02:58;;;;;;;10.68;8.88;;;14.00;99.90;;;;;;5104940;27;20039;-60
2022/05/24 01:05:27;;;;;;;12.10;9.13;;;14.00;99.90;;;;;;5143000;27;20053;-60
2022/05/24 01:07:53;;;;;;;13.82;9.25;;;14.00;99.90;;;;;;5139997;27;20043;-60
2022/05/24 01:10:26;;;;;;;13.40;9.60;;;14.00;99.90;;;;;;5124328;27;20019;-61
2022/05/24 01:12:58;;;;;;;13.23;9.77;;;14.00;99.90;;;;;;5138301;27;20135;-60
2022/05/24 01:15:24;;;;;;;13.63;9.93;;;14.00;99.90;;;;;;5142686;27;20371;-62
2022/05/24 01:17:52;;;;;;;14.73;9.88;;;13.90;99.90;;;;;;5142618;27;20043;-61
2022/05/24 01:20:19;;;;;;;12.50;10.18;;;13.90;99.90;;;;;;5138576;27;20043;-60
2022/05/24 01:23:03;;;;;;;13.27;10.23;;;13.90;99.90;;;;;;5139518;27;20096;-61
2022/05/24 01:25:34;;;;;;;11.23;9.85;;;13.90;99.90;;;;;;5139355;27;20038;-60
2022/05/24 01:28:04;;;;;;;14.18;11.00;;;13.90;99.90;;;;;;5144192;27;20043;-61
2022/05/24 01:30:29;;;;;;;14.90;11.23;;;13.90;99.90;;;;;;5139250;27;20035;-62
2022/05/24 01:38:35;;;;;;;16.13;11.75;;;13.90;99.90;;;;;;5137402;27;20121;-61
2022/05/24 01:41:01;;;;;;;16.17;12.50;;;13.90;99.90;;;;;;5144564;27;20355;-60
2022/05/24 01:43:28;;;;;;;18.73;14.07;;;14.00;99.90;;;;;;5142687;27;20343;-60
2022/05/24 01:46:03;;;;;;;18.38;14.75;;;13.90;99.90;;;;;;5144046;27;20110;-61
2022/05/24 01:48:38;;;;;;;22.25;17.15;;;13.90;99.90;;;;;;5139603;27;20030;-61
2022/05/24 01:51:05;;;;;;;23.98;18.50;;;14.00;99.90;;;;;;5137681;27;20039;-60
2022/05/24 01:53:40;;;;;;;27.30;18.27;;;14.00;99.90;;;;;;5139735;27;20031;-60
2022/05/24 01:56:08;;;;;;;25.10;19.33;;;14.00;99.90;;;;;;5125498;27;20051;-60
2022/05/24 01:58:36;;;;;;;30.65;22.15;;;14.10;99.90;;;;;;5139103;27;20126;-62
2022/05/24 02:01:44;;;;;;;28.42;21.20;;;14.10;99.90;;;;;;5142049;27;20088;-60
2022/05/24 02:04:10;;;;;;;28.80;22.85;;;14.10;99.90;;;;;;5141873;27;20030;-60
2022/05/24 02:06:36;;;;;;;27.05;21.13;;;14.10;99.90;;;;;;5140232;27;20337;-61
2022/05/24 02:09:04;;;;;;;26.83;21.20;;;14.20;99.90;;;;;;5144539;27;20122;-61
2022/05/24 02:11:31;;;;;;;28.33;21.95;;;14.10;99.90;;;;;;5118568;27;20050;-61
2022/05/24 02:14:12;;;;;;;25.80;20.38;;;14.10;99.90;;;;;;5125608;27;20038;-62
2022/05/24 02:16:47;;;;;;;29.27;22.27;;;14.10;99.90;;;;;;5120882;27;20091;-62
2022/05/24 02:19:14;;;;;;;27.15;20.95;;;14.10;99.90;;;;;;5143081;27;20425;-62
2022/05/24 02:21:42;;;;;;;27.83;21.17;;;14.20;99.90;;;;;;5137417;27;20030;-61
2022/05/24 02:24:18;;;;;;;26.40;21.63;;;14.20;99.90;;;;;;5137621;27;20344;-60
2022/05/24 02:26:43;;;;;;;27.58;21.42;;;14.20;99.90;;;;;;5143668;27;20077;-61
2022/05/24 02:29:09;;;;;;;25.73;21.60;;;14.20;99.90;;;;;;5138805;27;20445;-61
2022/05/24 02:31:35;;;;;;;27.50;20.73;;;14.20;99.90;;;;;;5141462;27;20035;-61
2022/05/24 02:34:01;;;;;;;24.17;20.65;;;14.20;99.90;;;;;;5138093;27;20074;-61
2022/05/24 02:36:26;;;;;;;24.95;20.27;;;14.20;99.90;;;;;;5139260;27;20038;-61
2022/05/24 02:38:52;;;;;;;23.70;20.63;;;14.30;99.90;;;;;;5139074;27;20375;-63
2022/05/24 02:41:31;;;;;;;29.15;21.27;;;14.30;99.90;;;;;;5137529;27;20039;-61
2022/05/24 02:44:21;;;;;;;26.05;20.02;;;14.30;99.90;;;;;;5139792;27;20035;-61
2022/05/24 02:46:48;;;;;;;27.20;20.35;;;14.30;99.90;;;;;;5134087;27;20356;-61
2022/05/24 02:49:14;;;;;;;27.02;20.70;;;14.30;99.90;;;;;;5141953;27;20046;-61
2022/05/24 02:51:40;;;;;;;28.23;20.25;;;14.30;99.90;;;;;;5142325;27;20042;-62
2022/05/24 02:54:09;;;;;;;22.45;19.30;;;14.30;99.90;;;;;;5137795;27;20581;-61
2022/05/24 02:56:34;;;;;;;23.60;20.45;;;14.30;99.90;;;;;;5134381;27;20049;-62
2022/05/24 02:59:03;;;;;;;21.95;18.45;;;14.30;99.90;;;;;;5142541;27;20455;-63
2022/05/24 03:01:30;;;;;;;23.25;18.63;;;14.30;99.90;;;;;;5134822;27;20045;-61
2022/05/24 03:03:57;;;;;;;22.20;17.90;;;14.30;99.90;;;;;;5153753;27;20404;-61
2022/05/24 03:06:24;;;;;;;23.60;18.27;;;14.30;99.90;;;;;;5147776;27;20035;-61
2022/05/24 03:14:21;;;;;;;25.48;17.40;;;14.20;99.90;;;;;;5149941;27;20492;-61
2022/05/24 03:16:48;;;;;;;21.80;17.40;;;14.30;99.90;;;;;;5134160;27;20051;-61
2022/05/24 03:19:15;;;;;;;23.40;17.40;;;14.30;99.90;;;;;;5133223;27;20038;-61
2022/05/24 03:21:41;;;;;;;22.52;16.80;;;14.30;99.90;;;;;;5128574;27;20039;-61
2022/05/24 03:24:08;;;;;;;22.33;16.10;;;14.30;99.90;;;;;;5141947;27;20031;-62
2022/05/24 03:26:34;;;;;;;21.92;16.38;;;14.30;99.90;;;;;;5140986;27;20038;-61
2022/05/24 03:28:59;;;;;;;21.90;16.23;;;14.30;99.90;;;;;;5143253;27;20035;-61
2022/05/24 03:31:25;;;;;;;19.30;15.63;;;14.30;99.90;;;;;;5147667;27;20081;-61
2022/05/24 03:33:52;;;;;;;20.95;14.73;;;14.30;99.90;;;;;;5139110;27;20266;-63
2022/05/24 03:36:19;;;;;;;20.05;15.80;;;14.30;99.90;;;;;;5140649;27;20039;-61
2022/05/24 03:38:46;;;;;;;23.58;17.17;;;14.30;99.90;;;;;;5142744;27;20046;-62
2022/05/24 03:41:12;;;;;;;20.08;15.02;;;14.30;99.90;;;;;;5142156;27;20030;-62
2022/05/24 03:43:38;;;;;;;23.35;16.60;;;14.30;99.90;;;;;;5146362;27;20394;-62
2022/05/24 03:46:07;;;;;;;21.35;16.70;;;14.30;99.90;;;;;;5140080;27;20035;-61
2022/05/24 03:48:33;;;;;;;23.95;17.73;;;14.40;99.90;;;;;;5139601;27;20027;-61
2022/05/24 03:50:59;;;;;;;23.58;18.95;;;14.40;99.90;;;;;;5146005;27;20109;-61
2022/05/24 03:53:25;;;;;;;27.92;19.33;;;14.30;99.90;;;;;;5140891;27;20126;-61
2022/05/24 03:55:51;;;;;;;29.73;20.50;;;14.30;99.90;;;;;;5146186;27;20049;-61
2022/05/24 03:58:17;;;;;;;27.35;18.30;;;14.20;99.90;;;;;;5140840;27;20035;-61
2022/05/24 04:00:44;;;;;;;27.17;19.02;;;14.20;99.90;;;;;;5141168;27;20110;-62
2022/05/24 04:03:10;;;;;;;26.23;17.58;;;14.20;99.90;;;;;;5140736;27;20027;-63
2022/05/24 04:05:36;;;;;;;25.02;18.95;;;14.10;99.90;;;;;;5145220;27;20039;-63
2022/05/24 04:08:02;;;;;;;29.77;20.65;;;14.10;99.90;;;;;;5144178;27;20345;-61
2022/05/24 04:10:30;;;;;;;31.20;19.85;;;14.00;99.90;;;;;;5144795;27;20139;-61
2022/05/24 04:12:56;;;;;;;29.63;19.35;;;14.00;99.90;;;;;;5138960;27;20043;-62
2022/05/24 04:15:23;;;;;;;30.20;19.13;;;14.00;99.90;;;;;;5144728;27;20115;-61
2022/05/24 04:17:51;;;;;;;26.27;18.98;;;14.00;99.90;;;;;;5122518;27;20049;-61
2022/05/24 04:20:17;;;;;;;26.63;18.38;;;14.00;99.90;;;;;;5141575;27;20112;-61
2022/05/24 04:22:43;;;;;;;26.38;19.35;;;14.00;99.90;;;;;;5136289;27;20329;-63
2022/05/24 04:25:10;;;;;;;31.92;18.65;;;14.00;99.90;;;;;;5140017;27;20035;-63
2022/05/24 04:27:36;;;;;;;31.67;18.52;;;14.00;99.90;;;;;;5110645;27;20034;-62
2022/05/24 04:30:03;;;;;;;27.67;17.85;;;14.00;99.90;;;;;;5122368;27;20099;-62
2022/05/24 04:32:28;;;;;;;26.40;16.88;;;14.00;99.90;;;;;;5146356;27;20027;-62
2022/05/24 04:34:57;;;;;;;26.83;17.42;;;14.00;99.90;;;;;;5144142;27;20463;-61
2022/05/24 04:37:23;;;;;;;27.25;17.05;;;14.00;99.90;;;;;;5142877;27;20404;-63
2022/05/24 04:39:48;;;;;;;24.02;16.23;;;13.90;99.90;;;;;;5116804;27;20118;-62
2022/05/24 04:42:21;;;;;;;21.83;15.43;;;13.90;99.90;;;;;;5125159;27;20460;-62
2022/05/24 04:44:52;;;;;;;19.35;14.07;;;13.90;99.90;;;;;;5143034;27;20027;-64
2022/05/24 04:47:20;;;;;;;19.80;14.55;;;13.90;99.90;;;;;;5143434;27;20046;-62
2022/05/24 04:49:50;;;;;;;21.60;13.52;;;13.80;99.90;;;;;;5141350;27;20037;-63
2022/05/24 04:52:16;;;;;;;20.15;13.27;;;13.80;99.90;;;;;;5145620;27;20039;-62
2022/05/24 04:54:44;;;;;;;22.05;14.18;;;13.80;99.90;;;;;;5124030;27;20050;-60
2022/05/24 04:57:10;;;;;;;20.35;14.07;;;13.80;99.90;;;;;;5140428;27;20038;-61
2022/05/24 04:59:36;;;;;;;16.88;13.50;;;13.80;99.90;;;;;;5125330;27;20065;-62
2022/05/24 05:02:03;;;;;;;20.67;14.18;;;13.90;99.90;;;;;;5142594;27;20045;-61
2022/05/24 05:04:29;;;;;;;21.83;14.27;;;13.90;99.90;;;;;;5143612;27;20031;-62
2022/05/24 05:06:55;;;;;;;20.67;13.98;;;13.90;99.90;;;;;;5141965;27;20501;-62
2022/05/24 05:09:21;;;;;;;21.35;14.05;;;13.80;99.90;;;;;;5147087;27;20027;-62
2022/05/24 05:11:47;;;;;;;21.23;13.60;;;13.80;99.90;;;;;;5143438;27;20053;-61
2022/05/24 05:14:13;;;;;;;21.05;13.25;;;13.80;99.90;;;;;;5150621;27;20041;-61
2022/05/24 05:16:40;;;;;;;20.15;13.65;;;13.80;99.90;;;;;;5150260;27;20055;-63
2022/05/24 05:19:08;;;;;;;21.00;13.35;;;13.70;99.90;;;;;;5152653;27;20042;-62
2022/05/24 05:21:36;;;;;;;22.52;12.75;;;13.70;99.90;;;;;;5144914;27;20047;-61
2022/05/24 05:24:04;;;;;;;22.58;14.00;;;13.70;99.90;;;;;;5148996;27;20542;-60
2022/05/24 05:26:29;;;;;;;22.90;12.82;;;13.70;99.90;;;;;;5129284;27;20365;-62
2022/05/24 05:28:55;;;;;;;20.70;12.85;;;13.70;99.90;;;;;;5149910;27;20043;-60
2022/05/24 05:31:26;;;;;;;20.08;12.55;;;13.70;99.90;;;;;;5141669;27;20065;-62
2022/05/24 05:33:53;;;;;;;19.92;11.95;;;13.80;99.90;;;;;;5138143;27;20099;-62
2022/05/24 05:36:20;;;;;;;18.50;12.10;;;13.90;99.90;;;;;;5136658;27;20039;-62
2022/05/24 05:38:47;;;;;;;19.90;12.88;;;13.90;99.90;;;;;;5137421;27;20030;-62
2022/05/24 05:41:15;;;;;;;19.98;12.80;;;13.90;99.90;;;;;;5121814;27;20522;-64
2022/05/24 05:43:41;;;;;;;17.75;11.88;;;13.90;99.90;;;;;;5119173;27;20447;-62
2022/05/24 05:46:07;;;;;;;20.42;11.60;;;13.90;99.90;;;;;;5140738;27;20051;-62
2022/05/24 05:48:34;;;;;;;17.55;12.43;;;14.00;99.90;;;;;;5138216;27;20027;-62
2022/05/24 05:51:00;;;;;;;21.90;12.30;;;14.10;99.90;;;;;;5143751;27;20031;-64
2022/05/24 05:53:26;;;;;;;17.35;12.65;;;14.10;99.90;;;;;;5117936;27;20845;-63
2022/05/24 05:55:52;;;;;;;14.93;12.50;;;14.10;99.90;;;;;;5098257;27;20027;-64
2022/05/24 05:58:17;;;;;;;19.73;12.95;;;14.00;99.90;;;;;;5120367;27;20038;-65
2022/05/24 06:00:43;;;;;;;18.85;12.73;;;14.10;99.90;;;;;;5139248;27;20420;-62
2022/05/24 06:03:09;;;;;;;19.95;12.35;;;14.10;99.90;;;;;;5140249;27;20473;-63
2022/05/24 06:05:35;;;;;;;17.10;12.05;;;14.10;99.90;;;;;;5119351;27;20144;-63
2022/05/24 06:08:01;;;;;;;20.77;12.57;;;14.20;99.90;;;;;;5137757;27;20363;-63
2022/05/24 06:10:28;;;;;;;15.70;12.00;;;14.20;99.90;;;;;;5136799;27;20077;-64
2022/05/24 06:12:56;;;;;;;17.92;12.20;;;14.20;99.90;;;;;;5138313;27;20040;-63
2022/05/24 06:15:25;;;;;;;19.75;11.90;;;14.20;99.90;;;;;;5140933;27;20050;-63
2022/05/24 06:17:52;;;;;;;20.55;12.43;;;14.10;99.90;;;;;;5137637;27;20041;-65
2022/05/24 06:20:21;;;;;;;16.40;12.20;;;14.10;99.90;;;;;;5142964;27;20070;-63
2022/05/24 06:22:49;;;;;;;19.73;12.13;;;14.10;99.90;;;;;;5145023;27;20050;-63
2022/05/24 06:25:16;;;;;;;19.95;12.00;;;14.10;99.90;;;;;;5139785;27;20035;-63
2022/05/24 06:27:42;;;;;;;18.67;11.82;;;14.20;99.90;;;;;;5140271;27;20059;-63
2022/05/24 06:30:08;;;;;;;19.95;12.60;;;14.10;99.90;;;;;;5144100;27;20118;-64
2022/05/24 06:32:34;;;;;;;21.42;11.90;;;14.20;99.90;;;;;;5142019;27;20056;-63
2022/05/24 06:34:59;;;;;;;17.33;11.93;;;14.20;99.90;;;;;;5141550;27;20654;-63
2022/05/24 06:37:25;;;;;;;18.60;11.93;;;14.20;99.90;;;;;;5140658;27;20270;-63
2022/05/24 06:39:51;;;;;;;20.38;12.00;;;14.30;99.90;;;;;;5141237;27;20473;-63
2022/05/24 06:42:17;;;;;;;18.02;11.65;;;14.20;99.90;;;;;;5141416;27;20034;-63
2022/05/24 06:44:42;;;;;;;16.40;11.43;;;14.20;99.90;;;;;;5143713;27;20031;-66
2022/05/24 06:47:08;;;;;;;20.73;11.88;;;14.30;99.90;;;;;;5139220;27;20238;-62
2022/05/24 06:49:36;;;;;;;19.45;10.95;;;14.30;99.90;;;;;;5143538;27;20454;-63
2022/05/24 06:52:02;;;;;;;16.58;11.85;;;14.40;99.90;;;;;;5143182;27;20372;-63
2022/05/24 06:54:29;;;;;;;20.30;11.43;;;14.30;99.90;;;;;;5120411;27;20043;-63
2022/05/24 06:56:55;;;;;;;23.67;11.43;;;14.30;99.90;;;;;;5138707;27;20058;-63
2022/05/24 07:04:50;;;;;;;19.38;13.13;;;14.50;99.90;;;;;;5142955;27;20053;-64
2022/05/24 07:07:16;;;;;;;22.80;12.88;;;14.50;99.90;;;;;;5116259;28;20039;-63
2022/05/24 07:09:41;;;;;;;18.17;11.30;;;14.60;99.90;;;;;;5134894;27;20034;-64
2022/05/24 07:12:08;;;;;;;15.93;11.30;;;14.60;99.90;;;;;;5143316;27;20406;-65
2022/05/24 07:14:34;;;;;;;15.05;11.00;;;14.70;99.90;;;;;;5141337;27;20458;-63
2022/05/24 07:17:03;;;;;;;17.10;11.50;;;14.70;99.90;;;;;;5139027;27;20496;-66
2022/05/24 07:19:30;;;;;;;15.85;11.18;;;14.70;99.90;;;;;;5143369;27;20037;-64
2022/05/24 07:21:55;;;;;;;16.20;11.70;;;14.70;99.90;;;;;;5123165;27;20383;-64
2022/05/24 07:24:21;;;;;;;20.27;11.35;;;14.70;99.90;;;;;;5141716;27;20038;-64
2022/05/24 07:26:47;;;;;;;17.00;11.13;;;14.70;99.90;;;;;;5140972;27;20084;-63
2022/05/24 07:29:13;;;;;;;17.08;11.82;;;14.60;99.90;;;;;;5141524;27;20035;-64
2022/05/24 07:31:38;;;;;;;18.25;11.77;;;14.70;99.90;;;;;;5142292;27;20035;-63
2022/05/24 07:34:04;;;;;;;19.17;10.77;;;14.80;99.90;;;;;;5142782;27;20043;-63
2022/05/24 07:36:30;;;;;;;16.95;11.95;;;14.80;99.90;;;;;;5138855;27;20035;-63
2022/05/24 07:38:58;;;;;;;17.63;11.18;;;14.80;99.90;;;;;;5139717;27;20114;-63
2022/05/24 07:46:53;;;;;;;16.10;10.07;;;15.20;99.90;;;;;;5136032;27;20035;-65
2022/05/24 07:49:18;;;;;;;13.93;8.80;;;15.50;99.90;;;;;;5146122;27;20478;-64
2022/05/24 07:51:44;;;;;;;13.18;8.60;;;15.70;99.90;;;;;;5145560;27;20605;-63
2022/05/24 07:54:09;;;;;;;15.30;7.65;;;15.80;99.90;;;;;;5145979;27;20096;-66
2022/05/24 07:56:35;;;;;;;13.63;7.55;;;15.90;99.90;;;;;;5123873;27;20039;-64
2022/05/24 07:59:01;;;;;;;10.48;7.38;;;15.90;99.90;;;;;;5144899;27;20538;-64
2022/05/24 08:01:27;;;;;;;12.05;6.68;;;15.90;99.90;;;;;;5146360;27;20049;-64
2022/05/24 08:03:53;;;;;;;9.73;5.95;;;16.10;99.90;;;;;;5116298;27;20127;-64
2022/05/24 08:06:19;;;;;;;11.68;6.35;;;16.20;99.90;;;;;;5139762;27;20111;-64
2022/05/24 08:08:44;;;;;;;9.90;5.47;;;16.50;99.90;;;;;;5144178;27;20548;-64
2022/05/24 08:11:10;;;;;;;6.28;4.75;;;16.70;99.90;;;;;;5144321;27;20031;-64
2022/05/24 08:13:37;;;;;;;9.23;3.90;;;16.80;99.90;;;;;;5145348;27;20037;-63
2022/05/24 08:16:04;;;;;;;8.02;4.38;;;16.70;99.90;;;;;;5115547;27;20054;-64
2022/05/24 08:18:30;;;;;;;7.80;4.10;;;16.70;99.90;;;;;;5139815;27;20428;-65
2022/05/24 08:20:56;;;;;;;9.27;4.07;;;16.90;99.90;;;;;;5145361;27;20073;-63
2022/05/24 08:23:23;;;;;;;9.60;3.80;;;17.10;99.90;;;;;;5144710;27;20492;-64
2022/05/24 08:25:49;;;;;;;8.25;3.95;;;17.20;99.90;;;;;;5143851;27;20057;-65
2022/05/24 08:28:16;;;;;;;8.75;3.72;;;17.40;99.90;;;;;;5143901;27;20454;-64
2022/05/24 08:30:42;;;;;;;7.03;3.45;;;17.40;99.90;;;;;;5145515;27;20035;-64
2022/05/24 08:33:11;;;;;;;8.63;4.38;;;17.50;99.90;;;;;;5143455;27;20031;-64
2022/05/24 08:35:37;;;;;;;8.82;4.43;;;17.60;99.90;;;;;;5116259;27;20042;-63
2022/05/24 08:38:04;;;;;;;9.38;4.63;;;17.70;99.90;;;;;;5131347;27;20043;-64
2022/05/24 08:40:33;;;;;;;7.32;5.00;;;17.80;99.90;;;;;;5144039;27;20109;-64
2022/05/24 08:43:14;;;;;;;10.77;5.20;;;17.80;99.90;;;;;;5144476;27;20034;-63
2022/05/24 08:49:03;;;;;;;9.27;4.82;;;17.70;99.90;;;;;;5142362;27;20371;-63
2022/05/24 08:51:40;;;;;;;7.20;4.70;;;17.40;99.90;;;;;;5145116;27;20035;-64
2022/05/24 08:54:18;;;;;;;10.20;5.00;;;17.20;99.90;;;;;;5123747;27;20078;-63
2022/05/24 08:56:55;;;;;;;7.45;4.60;;;17.00;99.90;;;;;;5140558;27;20045;-65
2022/05/24 08:59:23;;;;;;;8.15;4.80;;;16.70;99.90;;;;;;5142941;27;20076;-65
2022/05/24 09:01:50;;;;;;;9.25;4.68;;;16.70;99.90;;;;;;5143120;27;20027;-64
2022/05/24 09:04:16;;;;;;;7.00;4.38;;;16.60;99.90;;;;;;5143882;27;20441;-64
2022/05/24 09:06:49;;;;;;;9.40;5.00;;;16.50;99.90;;;;;;5143626;27;20058;-64
2022/05/24 09:09:29;;;;;;;11.00;5.68;;;16.60;99.90;;;;;;5141637;27;20347;-64
2022/05/24 09:12:22;;;;;;;7.55;4.68;;;16.60;99.90;;;;;;5141276;27;20122;-64
2022/05/24 09:15:06;;;;;;;9.30;4.65;;;16.70;99.90;;;;;;5144173;27;20038;-63
2022/05/24 09:18:02;;;;;;;7.75;4.80;;;16.80;99.90;;;;;;5136711;27;20042;-64
2022/05/24 09:20:34;;;;;;;9.82;5.45;;;16.90;99.90;;;;;;5141960;27;20039;-65
2022/05/24 09:23:15;;;;;;;8.35;4.60;;;17.00;99.90;;;;;;5143421;27;20117;-64
2022/05/24 09:25:59;;;;;;;8.52;4.38;;;16.90;99.90;;;;;;5140285;27;20114;-64
2022/05/24 09:28:43;;;;;;;;;;;16.70;99.90;;;;;;5139262;27;20041;-64
2022/05/24 09:31:30;;;;;;;5.68;3.38;;;16.70;99.90;;;;;;5144357;27;19925;-64
2022/05/24 09:34:07;;;;;;;5.47;2.65;;;16.70;99.90;;;;;;5139361;27;20051;-64
2022/05/24 09:36:48;;;;;;;4.68;1.60;;;16.70;99.90;;;;;;5134573;27;20096;-65
2022/05/24 09:39:35;;;;;;;5.05;1.50;;;16.70;99.90;;;;;;5115933;27;20126;-64
2022/05/24 09:42:21;;;;;;;8.40;1.88;;;16.80;99.90;;;;;;5140427;27;20414;-64
2022/05/24 09:44:57;;;;;;;3.95;1.75;;;16.80;99.90;;;;;;5141398;27;20031;-63
2022/05/24 09:47:27;;;;;;;4.32;1.80;;;17.00;99.90;;;;;;5138251;27;20031;-63
2022/05/24 09:49:54;;;;;;;4.30;1.92;;;17.00;99.90;;;;;;5116046;27;20448;-64
2022/05/24 09:52:21;;;;;;;5.25;2.20;;;17.00;99.90;;;;;;5142234;27;20099;-64
2022/05/24 09:54:59;;;;;;;5.18;2.17;;;16.90;99.90;;;;;;5142031;27;20049;-63
2022/05/24 09:57:32;;;;;;;4.93;2.03;;;16.90;99.90;;;;;;5138080;27;20070;-63
2022/05/24 10:00:20;;;;;;;7.60;2.23;;;17.00;99.90;;;;;;5139987;27;20151;-64
2022/05/24 10:03:02;;;;;;;3.70;2.50;;;16.90;99.90;;;;;;5140829;27;20462;-64
2022/05/24 10:05:28;;;;;;;5.95;1.35;;;16.90;99.90;;;;;;5142068;27;20050;-64
2022/05/24 10:07:58;;;;;;;2.17;0.80;;;16.50;99.90;;;;;;5140677;27;20035;-63
2022/05/24 10:10:36;;;;;;;1.58;0.80;;;15.90;99.90;;;;;;5138338;27;20076;-64
2022/05/24 10:13:35;;;;;;;3.83;1.17;;;15.50;99.90;;;;;;5113131;27;20053;-63
2022/05/24 10:16:12;;;;;;;1.35;0.93;;;15.20;99.90;;;;;;5128725;27;20046;-63
2022/05/24 10:18:50;;;;;;;6.28;2.20;;;14.90;99.90;;;;;;5141511;27;20053;-64
2022/05/24 10:21:19;;;;;;;4.53;1.55;;;14.70;99.90;;;;;;5121096;27;20046;-65
2022/05/24 10:23:58;;;;;;;6.45;1.77;;;14.40;99.90;;;;;;5144083;27;20367;-66
2022/05/24 10:26:26;;;;;;;2.58;1.00;;;14.40;99.90;;;;;;5139945;27;20031;-62
2022/05/24 10:29:07;;;;;;;5.47;1.30;;;14.10;99.90;;;;;;5117441;27;20375;-63
2022/05/24 10:31:46;;;;;;;2.60;1.35;;;14.00;99.90;;;;;;5139945;27;20114;-64
2022/05/24 10:40:37;;;;;;;2.05;1.50;;;13.80;99.90;;;;;;5142175;27;20204;-64
2022/05/24 10:43:08;;;;;;;4.38;1.98;;;13.80;99.90;;;;;;5141966;27;20411;-63
2022/05/24 10:45:50;;;;;;;7.30;2.05;;;13.90;99.90;;;;;;5139655;27;20652;-65
2022/05/24 10:48:35;;;;;;;6.25;2.45;;;13.90;99.90;;;;;;5137433;27;20066;-64
2022/05/24 10:51:29;;;;;;;4.85;2.10;;;14.00;99.90;;;;;;5141442;27;20036;-64
2022/05/24 10:54:11;;;;;;;5.90;2.50;;;14.00;99.90;;;;;;5139486;27;20129;-64
2022/05/24 10:56:44;;;;;;;6.82;2.88;;;14.20;99.90;;;;;;5137161;27;20078;-64
2022/05/24 10:59:47;;;;;;;5.53;3.25;;;14.20;99.90;;;;;;5119579;27;20034;-63
2022/05/24 11:02:57;;;;;;;6.95;3.28;;;14.40;99.90;;;;;;5139254;27;20039;-63
2022/05/24 11:05:42;;;;;;;8.93;3.33;;;14.30;99.90;;;;;;5139443;27;20507;-64
2022/05/24 11:08:36;;;;;;;10.80;4.10;;;14.20;99.90;;;;;;5139713;27;20039;-64
2022/05/24 11:11:11;;;;;;;15.67;4.47;;;14.20;99.90;;;;;;5141463;27;20035;-63
2022/05/24 11:13:47;;;;;;;10.52;3.97;;;14.20;99.90;;;;;;5140238;27;20035;-65
2022/05/24 11:16:23;;;;;;;5.45;2.35;;;14.30;99.90;;;;;;5137853;27;20062;-63
2022/05/24 11:18:49;;;;;;;6.80;2.28;;;14.40;99.90;;;;;;5141064;27;20039;-63
2022/05/24 11:21:22;;;;;;;3.08;1.45;;;14.30;99.90;;;;;;5143662;27;20038;-63
2022/05/24 11:24:06;;;;;;;4.10;1.80;;;14.00;99.90;;;;;;5123203;27;20524;-63
2022/05/24 11:26:35;;;;;;;1.88;1.33;;;14.00;99.90;;;;;;5139029;27;20051;-64
2022/05/24 11:29:25;;;;;;;1.38;0.98;;;14.00;99.90;;;;;;5145041;27;20031;-62
2022/05/24 11:31:57;;;;;;;1.58;0.98;;;13.90;99.90;;;;;;5147296;27;20049;-63
2022/05/24 11:34:31;;;;;;;1.08;0.80;;;14.00;99.90;;;;;;5146792;27;20054;-63
2022/05/24 11:37:25;;;;;;;1.88;1.05;;;14.10;99.90;;;;;;5106848;27;20138;-62
2022/05/24 11:39:52;;;;;;;2.70;1.08;;;14.10;99.90;;;;;;5144343;27;20079;-62
2022/05/24 11:42:23;;;;;;;3.83;1.30;;;14.30;99.90;;;;;;5123552;27;20792;-63
2022/05/24 11:44:54;;;;;;;5.75;1.50;;;14.50;99.90;;;;;;5144306;27;20050;-63
2022/05/24 11:47:35;;;;;;;2.25;1.20;;;14.70;99.90;;;;;;5123151;27;20080;-62
2022/05/24 11:50:08;;;;;;;3.10;1.35;;;14.90;99.90;;;;;;5142639;27;20474;-63
2022/05/24 11:52:44;;;;;;;4.35;1.73;;;15.10;99.90;;;;;;5141349;27;20460;-63
2022/05/24 11:55:30;;;;;;;2.28;1.00;;;15.10;99.90;;;;;;5146861;27;20038;-63
2022/05/24 11:58:19;;;;;;;2.70;1.38;;;15.20;99.90;;;;;;5138337;27;20376;-63
2022/05/24 12:01:05;;;;;;;3.33;1.60;;;15.30;99.90;;;;;;5122000;27;20050;-63
2022/05/24 12:09:23;;;;;;;6.50;1.92;;;15.50;99.90;;;;;;5142508;27;20359;-62
2022/05/24 12:12:40;;;;;;;8.90;2.20;;;15.70;99.90;;;;;;5122466;27;20081;-63
2022/05/24 12:15:14;;;;;;;3.00;1.38;;;15.90;99.90;;;;;;5104621;27;20070;-62
2022/05/24 12:17:40;;;;;;;4.07;1.38;;;16.20;99.90;;;;;;5120313;27;20077;-62
2022/05/24 12:20:34;;;;;;;4.78;2.15;;;16.30;99.90;;;;;;5143509;27;20047;-62
2022/05/24 12:23:14;;;;;;;6.43;2.35;;;16.30;99.90;;;;;;5144595;27;20043;-62
2022/05/24 12:26:03;;;;;;;2.35;1.30;;;16.40;99.90;;;;;;5143901;27;20371;-63
2022/05/24 12:28:34;;;;;;;5.20;2.00;;;16.50;99.90;;;;;;5123964;27;20052;-63
2022/05/24 12:31:07;;;;;;;7.05;1.60;;;16.60;99.90;;;;;;5145153;27;20043;-62
2022/05/24 12:33:46;;;;;;;9.88;2.60;;;16.50;99.90;;;;;;5140402;27;20035;-62
2022/05/24 12:36:41;;;;;;;4.32;1.90;;;16.60;99.90;;;;;;5141227;27;20035;-63
2022/05/24 12:39:06;;;;;;;8.60;2.75;;;16.70;99.90;;;;;;5145324;27;20043;-63
2022/05/24 12:41:39;;;;;;;7.90;2.88;;;16.70;99.90;;;;;;5122685;27;20367;-63
2022/05/24 12:44:21;;;;;;;7.55;2.58;;;16.80;99.90;;;;;;5143250;27;20050;-63
2022/05/24 12:46:58;;;;;;;8.07;4.05;;;16.90;99.90;;;;;;5139889;27;20035;-63
2022/05/24 12:49:32;;;;;;;4.50;2.13;;;17.10;99.90;;;;;;5143974;27;20038;-62
2022/05/24 12:52:17;;;;;;;5.38;2.13;;;17.20;99.90;;;;;;5140685;27;20337;-63
2022/05/24 12:54:48;;;;;;;5.80;1.40;;;17.30;99.90;;;;;;5106463;27;20481;-63
2022/05/24 12:57:15;;;;;;;5.75;1.88;;;17.30;99.90;;;;;;5137798;27;20181;-64
2022/05/24 12:59:49;;;;;;;6.55;2.53;;;17.40;99.90;;;;;;5145116;27;20092;-65
2022/05/24 13:02:37;;;;;;;7.78;2.55;;;17.60;99.90;;;;;;5118827;27;20060;-63
2022/05/24 13:05:10;;;;;;;7.22;2.85;;;17.70;99.90;;;;;;5143976;27;20049;-63
2022/05/24 13:07:54;;;;;;;5.00;2.10;;;17.70;99.90;;;;;;5139110;27;20392;-62
2022/05/24 13:10:22;;;;;;;;;;;17.90;99.90;;;;;;5143073;27;20045;-63
2022/05/24 13:13:05;;;;;;;6.80;2.25;;;18.10;99.90;;;;;;5142829;27;20256;-63
2022/05/24 13:15:35;;;;;;;8.00;2.40;;;18.20;99.90;;;;;;5142485;27;20047;-63
2022/05/24 13:18:12;;;;;;;4.60;2.30;;;17.80;99.90;;;;;;5140997;27;20529;-64
2022/05/24 13:20:51;;;;;;;6.78;2.03;;;18.20;99.90;;;;;;5140209;27;20030;-62
2022/05/24 13:23:16;;;;;;;4.63;1.70;;;18.50;99.90;;;;;;5139342;27;20049;-63
2022/05/24 13:25:52;;;;;;;6.90;2.30;;;18.50;99.90;;;;;;5144786;27;20035;-63
2022/05/24 13:28:43;;;;;;;4.20;1.50;;;18.50;99.90;;;;;;5139706;27;20027;-62
2022/05/24 13:34:24;;;;;;;;;;;18.30;99.90;;;;;;5141178;27;20035;-62
2022/05/24 13:36:58;;;;;;;3.53;1.65;;;18.00;99.90;;;;;;5141910;27;19940;-62